CheckWX is a tool to help pilots better visualize weather data.  It is not intended as a substitute for an official pre-flight weather briefing.

12:27:11 UTC

PAFA TAF
Fairbanks International Airport
Fairbanks, Alaska, USA
PAFA 261139Z 2612/2718 VRB03KT P6SM VCSH BKN040 FM262000 24009KT P6SM VCSH BKN040

May-26@
12:00 UTC

May-26 @ 12:00 UTC

May-26@
20:00 UTC

May-26 @ 20:00 UTC

TAF PAFA 261139Z 2612/2718 VRB03KT P6SM VCSH BKN040

Expired

Wind
  • Variable at 3 KTS
Conditions
Area Showers
Cloud Levels
  • Broken at 4,000' AGL

May-26@
20:00 UTC

May-26 @ 20:00 UTC

May-27@
18:00 UTC

May-27 @ 18:00 UTC

FM262000 24009KT P6SM VCSH BKN040

From

From Standard forecast or significant change

Wind
  • 240° at 9 KTS
Conditions
Area Showers
Cloud Levels
  • Broken at 4,000' AGL